Latest Weather Observations for South Channel Island

IDV60801

Issued at 5:35 pm EDT Wednesday 26 November 2014 (issued every 30 minutes, with the page automatically refreshed every 10 minutes)

About weather observations | Map of weather stations | Latest weather observations for VIC | Other Formats
Station Details ID: 086344 Name: SOUTH CHANNEL ISLAND Lat: -38.31 Lon: 144.80 Height: 9.0 m
Data from the previous 72 hours. | See also: Recent months for locations in Victoria
Date/Time
EDT
Temp
°C
App
Temp
°C
Dew
Point
Rel
Hum
%
Delta-T
°C
Wind Press
QNH
hPa
Press
MSL
hPa
Rain
since 9 am
mm
Dir
 
Spd
km/h
Gust
km/h
Spd
kts
Gust
kts
26/05:30pm - - - - - SSW 33 39 18 21 - - -
26/05:00pm - - - - - SSW 35 41 19 22 - - -
26/04:30pm - - - - - SSW 33 44 18 24 - - -
26/04:00pm - - - - - SSW 30 35 16 19 - - -
26/03:30pm - - - - - SSW 32 37 17 20 - - -
26/03:00pm - - - - - S 28 35 15 19 - - -
26/02:30pm - - - - - SSW 39 46 21 25 - - -
26/02:00pm - - - - - SSW 39 43 21 23 - - -
26/01:30pm - - - - - SSW 35 39 19 21 - - -
26/01:00pm - - - - - SW 24 33 13 18 - - -
26/12:30pm - - - - - WSW 22 28 12 15 - - -
26/12:00pm - - - - - W 17 22 9 12 - - -
26/11:30am - - - - - WSW 19 26 10 14 - - -
26/11:00am - - - - - WNW 17 20 9 11 - - -
26/10:30am - - - - - WNW 19 22 10 12 - - -
26/10:00am - - - - - W 24 28 13 15 - - -
26/09:30am - - - - - W 26 30 14 16 - - -
26/09:00am - - - - - WNW 24 30 13 16 - - -
26/08:30am - - - - - WNW 26 30 14 16 - - -
26/08:00am - - - - - WNW 24 28 13 15 - - -
26/07:30am - - - - - WNW 26 28 14 15 - - -
26/07:00am - - - - - WNW 24 28 13 15 - - -
26/06:30am - - - - - WNW 20 26 11 14 - - -
26/06:00am - - - - - WNW 28 30 15 16 - - -
26/05:30am - - - - - W 28 32 15 17 - - -
26/05:00am - - - - - W 30 32 16 17 - - -
26/04:30am - - - - - WNW 33 35 18 19 - - -
26/04:00am - - - - - W 32 35 17 19 - - -
26/03:30am - - - - - WNW 33 35 18 19 - - -
26/03:00am - - - - - WNW 33 35 18 19 - - -
26/02:30am - - - - - WNW 32 35 17 19 - - -
26/02:00am - - - - - WNW 30 33 16 18 - - -
26/01:30am - - - - - WNW 28 33 15 18 - - -
26/01:00am - - - - - WNW 28 33 15 18 - - -
26/12:30am - - - - - WNW 26 30 14 16 - - -
26/12:00am - - - - - W 24 28 13 15 - - -
 
Date/Time
EDT
Temp
°C
App
Temp
°C
Dew
Point
Rel
Hum
%
Delta-T
°C
Wind Press
QNH
hPa
Press
MSL
hPa
Rain
since 9 am
mm
Dir
 
Spd
km/h
Gust
km/h
Spd
kts
Gust
kts
25/11:30pm - - - - - WSW 33 41 18 22 - - -
25/11:00pm - - - - - WSW 32 39 17 21 - - -
25/10:30pm - - - - - WSW 37 43 20 23 - - -
25/10:00pm - - - - - SW 39 48 21 26 - - -
25/09:30pm - - - - - SW 37 46 20 25 - - -
25/09:00pm - - - - - SW 43 50 23 27 - - -
25/08:30pm - - - - - SW 41 48 22 26 - - -
25/08:00pm - - - - - SW 41 48 22 26 - - -
25/07:30pm - - - - - SW 44 52 24 28 - - -
25/07:00pm - - - - - SW 50 57 27 31 - - -
25/06:30pm - - - - - SW 43 50 23 27 - - -
25/06:00pm - - - - - SW 41 50 22 27 - - -
25/05:30pm - - - - - SSW 39 48 21 26 - - -
25/05:00pm - - - - - SW 37 44 20 24 - - -
25/04:30pm - - - - - SW 39 44 21 24 - - -
25/04:00pm - - - - - SSW 35 41 19 22 - - -
25/03:30pm - - - - - SSW 30 33 16 18 - - -
25/03:00pm - - - - - SW 35 41 19 22 - - -
25/02:30pm - - - - - SW 28 32 15 17 - - -
25/02:00pm - - - - - SW 30 44 16 24 - - -
25/01:30pm - - - - - SW 28 32 15 17 - - -
25/01:00pm - - - - - WSW 30 35 16 19 - - -
25/12:30pm - - - - - WSW 32 37 17 20 - - -
25/12:00pm - - - - - W 33 46 18 25 - - -
25/11:30am - - - - - W 35 43 19 23 - - -
25/11:00am - - - - - W 33 41 18 22 - - -
25/10:30am - - - - - W 41 48 22 26 - - -
25/10:00am - - - - - W 37 44 20 24 - - -
25/09:30am - - - - - W 35 43 19 23 - - -
25/09:00am - - - - - WNW 35 41 19 22 - - -
25/08:30am - - - - - W 39 46 21 25 - - -
25/08:00am - - - - - W 39 44 21 24 - - -
25/07:30am - - - - - W 43 50 23 27 - - -
25/07:00am - - - - - W 41 48 22 26 - - -
25/06:30am - - - - - W 46 54 25 29 - - -
25/06:00am - - - - - W 44 54 24 29 - - -
25/05:30am - - - - - W 48 56 26 30 - - -
25/05:00am - - - - - W 44 52 24 28 - - -
25/04:30am - - - - - W 44 52 24 28 - - -
25/04:00am - - - - - WNW 44 52 24 28 - - -
25/03:30am - - - - - WNW 41 48 22 26 - - -
25/03:00am - - - - - W 46 52 25 28 - - -
25/02:30am - - - - - W 44 50 24 27 - - -
25/02:00am - - - - - W 44 54 24 29 - - -
25/01:30am - - - - - WNW 35 41 19 22 - - -
25/01:00am - - - - - W 37 43 20 23 - - -
25/12:30am - - - - - W 39 44 21 24 - - -
25/12:00am - - - - - W 33 37 18 20 - - -
 
Date/Time
EDT
Temp
°C
App
Temp
°C
Dew
Point
Rel
Hum
%
Delta-T
°C
Wind Press
QNH
hPa
Press
MSL
hPa
Rain
since 9 am
mm
Dir
 
Spd
km/h
Gust
km/h
Spd
kts
Gust
kts
24/11:30pm - - - - - W 35 41 19 22 - - -
24/11:00pm - - - - - W 37 44 20 24 - - -
24/10:30pm - - - - - W 43 50 23 27 - - -
24/10:00pm - - - - - W 41 50 22 27 - - -
24/09:30pm - - - - - WSW 33 39 18 21 - - -
24/09:00pm - - - - - WSW 39 50 21 27 - - -
24/08:30pm - - - - - WSW 41 52 22 28 - - -
24/08:00pm - - - - - SW 39 50 21 27 - - -
24/07:30pm - - - - - SW 50 59 27 32 - - -
24/07:26pm - - - - - SW 52 70 28 38 - - -
24/07:00pm - - - - - SW 48 57 26 31 - - -
24/06:30pm - - - - - SW 54 65 29 35 - - -
24/06:00pm - - - - - SW 52 61 28 33 - - -
24/05:32pm - - - - - SW 48 67 26 36 - - -
24/05:30pm - - - - - SW 44 61 24 33 - - -
24/05:29pm - - - - - SW 44 61 24 33 - - -
24/05:00pm - - - - - SW 35 41 19 22 - - -
24/04:30pm - - - - - SW 26 30 14 16 - - -
24/04:00pm - - - - - WSW 30 33 16 18 - - -
24/03:30pm - - - - - W 26 33 14 18 - - -
24/03:00pm - - - - - W 13 15 7 8 - - -
24/02:30pm - - - - - NNW 13 15 7 8 - - -
24/02:00pm - - - - - N 13 15 7 8 - - -
24/01:30pm - - - - - NNE 13 17 7 9 - - -
24/01:00pm - - - - - NNE 19 24 10 13 - - -
24/12:30pm - - - - - NE 28 33 15 18 - - -
24/12:00pm - - - - - NNE 26 33 14 18 - - -
24/11:30am - - - - - NNE 20 28 11 15 - - -
24/11:00am - - - - - N 17 20 9 11 - - -
24/10:30am - - - - - ENE 26 28 14 15 - - -
24/10:00am - - - - - ESE 17 19 9 10 - - -
24/09:30am - - - - - SSE 20 26 11 14 - - -
24/09:00am - - - - - S 26 32 14 17 - - -
24/08:30am - - - - - SW 22 26 12 14 - - -
24/08:00am - - - - - NW 9 22 5 12 - - -
24/07:30am - - - - - ENE 24 26 13 14 - - -
24/07:00am - - - - - ENE 20 24 11 13 - - -
24/06:30am - - - - - ENE 28 30 15 16 - - -
24/06:00am - - - - - ENE 22 26 12 14 - - -
24/05:30am - - - - - ENE 24 28 13 15 - - -
24/05:00am - - - - - ENE 22 26 12 14 - - -
24/04:30am - - - - - ENE 20 24 11 13 - - -
24/04:00am - - - - - E 24 26 13 14 - - -
24/03:30am - - - - - ENE 26 30 14 16 - - -
24/03:00am - - - - - ENE 24 28 13 15 - - -
24/02:30am - - - - - E 22 28 12 15 - - -
24/02:00am - - - - - ENE 15 20 8 11 - - -
24/01:30am - - - - - SSE 9 9 5 5 - - -
24/01:00am - - - - - SW 7 9 4 5 - - -
24/12:30am - - - - - SSE 6 9 3 5 - - -
24/12:00am - - - - - CALM 0 0 0 0 - - -
 
Date/Time
EDT
Temp
°C
App
Temp
°C
Dew
Point
Rel
Hum
%
Delta-T
°C
Wind Press
QNH
hPa
Press
MSL
hPa
Rain
since 9 am
mm
Dir
 
Spd
km/h
Gust
km/h
Spd
kts
Gust
kts
23/11:30pm - - - - - CALM 0 0 0 0 - - -
23/11:00pm - - - - - CALM 0 0 0 0 - - -
23/10:30pm - - - - - E 9 11 5 6 - - -
23/10:00pm - - - - - E 13 15 7 8 - - -
23/09:30pm - - - - - E 13 15 7 8 - - -
23/09:00pm - - - - - ESE 20 26 11 14 - - -
23/08:30pm - - - - - SE 20 26 11 14 - - -
23/08:00pm - - - - - SE 22 26 12 14 - - -
23/07:30pm - - - - - SE 22 26 12 14 - - -
23/07:00pm - - - - - SSE 26 32 14 17 - - -
23/06:30pm - - - - - S 28 32 15 17 - - -
23/06:00pm - - - - - S 30 33 16 18 - - -

Other Formats:

Comma delimited format used in spreadsheet applications
http://www.bom.gov.au/fwo/IDV60801/IDV60801.94853.axf

JavaScript Object Notation format (JSON) in row-major order
http://www.bom.gov.au/fwo/IDV60801/IDV60801.94853.json